sensor_id;sensor_type;location;lat;lon;timestamp;pressure;altitude;pressure_sealevel;temperature;humidity
2178;BME280;1095;50.992;6.798;2023-06-10T00:01:55;100600.56;;;19.89;75.74
2178;BME280;1095;50.992;6.798;2023-06-10T00:04:24;100587.94;;;19.85;75.11
2178;BME280;1095;50.992;6.798;2023-06-10T00:06:51;100586.88;;;19.93;73.99
2178;BME280;1095;50.992;6.798;2023-06-10T00:09:19;100583.59;;;20.15;73.33
2178;BME280;1095;50.992;6.798;2023-06-10T00:11:47;100585.66;;;20.13;73.61
2178;BME280;1095;50.992;6.798;2023-06-10T00:14:14;100594.28;;;20.09;73.84
2178;BME280;1095;50.992;6.798;2023-06-10T00:16:40;100590.50;;;19.98;74.88
2178;BME280;1095;50.992;6.798;2023-06-10T00:19:10;100592.28;;;20.04;73.90
2178;BME280;1095;50.992;6.798;2023-06-10T00:21:40;100594.94;;;20.04;74.20
2178;BME280;1095;50.992;6.798;2023-06-10T00:24:08;100585.56;;;20.02;74.16
2178;BME280;1095;50.992;6.798;2023-06-10T00:26:37;100591.19;;;19.87;74.53
2178;BME280;1095;50.992;6.798;2023-06-10T00:29:04;100586.91;;;19.86;74.50
2178;BME280;1095;50.992;6.798;2023-06-10T00:31:30;100599.31;;;19.74;75.11
2178;BME280;1095;50.992;6.798;2023-06-10T00:33:57;100596.09;;;19.65;75.36
2178;BME280;1095;50.992;6.798;2023-06-10T00:36:24;100594.84;;;19.68;75.73
2178;BME280;1095;50.992;6.798;2023-06-10T00:38:53;100599.22;;;19.55;75.81
2178;BME280;1095;50.992;6.798;2023-06-10T00:41:19;100591.88;;;19.58;75.99
2178;BME280;1095;50.992;6.798;2023-06-10T00:43:46;100601.28;;;19.53;76.04
2178;BME280;1095;50.992;6.798;2023-06-10T00:46:13;100598.44;;;19.48;76.11
2178;BME280;1095;50.992;6.798;2023-06-10T00:48:41;100597.06;;;19.39;76.21
2178;BME280;1095;50.992;6.798;2023-06-10T00:51:08;100599.13;;;19.37;76.30
2178;BME280;1095;50.992;6.798;2023-06-10T00:53:36;100605.47;;;19.36;76.83
2178;BME280;1095;50.992;6.798;2023-06-10T00:56:07;100605.91;;;19.33;76.70
2178;BME280;1095;50.992;6.798;2023-06-10T00:58:34;100600.19;;;19.30;76.97
2178;BME280;1095;50.992;6.798;2023-06-10T01:01:01;100609.22;;;19.22;77.33
2178;BME280;1095;50.992;6.798;2023-06-10T01:03:29;100610.88;;;19.16;77.48
2178;BME280;1095;50.992;6.798;2023-06-10T01:06:00;100609.69;;;19.12;77.68
2178;BME280;1095;50.992;6.798;2023-06-10T01:08:35;100604.00;;;19.02;77.88
2178;BME280;1095;50.992;6.798;2023-06-10T01:11:11;100608.91;;;18.99;77.97
2178;BME280;1095;50.992;6.798;2023-06-10T01:13:41;100606.50;;;18.90;78.26
2178;BME280;1095;50.992;6.798;2023-06-10T01:16:09;100606.16;;;18.80;78.86
2178;BME280;1095;50.992;6.798;2023-06-10T01:18:36;100603.09;;;18.83;78.97
2178;BME280;1095;50.992;6.798;2023-06-10T01:21:04;100605.56;;;18.78;79.15
2178;BME280;1095;50.992;6.798;2023-06-10T01:23:34;100613.72;;;18.77;79.14
2178;BME280;1095;50.992;6.798;2023-06-10T01:26:04;100610.25;;;18.76;79.16
2178;BME280;1095;50.992;6.798;2023-06-10T01:28:38;100604.97;;;18.76;79.33
2178;BME280;1095;50.992;6.798;2023-06-10T01:31:13;100607.00;;;18.74;79.78
2178;BME280;1095;50.992;6.798;2023-06-10T01:33:43;100616.59;;;18.69;80.36
2178;BME280;1095;50.992;6.798;2023-06-10T01:36:10;100603.97;;;18.64;80.44
2178;BME280;1095;50.992;6.798;2023-06-10T01:38:42;100600.50;;;18.57;80.53
2178;BME280;1095;50.992;6.798;2023-06-10T01:41:10;100602.97;;;18.52;80.60
2178;BME280;1095;50.992;6.798;2023-06-10T01:43:39;100611.94;;;18.51;80.93
2178;BME280;1095;50.992;6.798;2023-06-10T01:46:06;100608.06;;;18.47;81.37
2178;BME280;1095;50.992;6.798;2023-06-10T01:48:33;100614.84;;;18.43;81.87
2178;BME280;1095;50.992;6.798;2023-06-10T01:50:59;100615.41;;;18.45;82.14
2178;BME280;1095;50.992;6.798;2023-06-10T01:53:26;100616.06;;;18.40;82.42
2178;BME280;1095;50.992;6.798;2023-06-10T01:55:54;100617.09;;;18.33;82.70
2178;BME280;1095;50.992;6.798;2023-06-10T01:58:21;100620.56;;;18.27;83.10
2178;BME280;1095;50.992;6.798;2023-06-10T02:00:47;100624.84;;;18.21;83.07
2178;BME280;1095;50.992;6.798;2023-06-10T02:03:14;100622.59;;;18.18;82.91
2178;BME280;1095;50.992;6.798;2023-06-10T02:05:41;100614.25;;;18.14;82.58
2178;BME280;1095;50.992;6.798;2023-06-10T02:08:07;100618.34;;;18.10;82.27
2178;BME280;1095;50.992;6.798;2023-06-10T02:10:34;100620.56;;;18.07;82.21
2178;BME280;1095;50.992;6.798;2023-06-10T02:13:02;100623.63;;;18.04;82.34
2178;BME280;1095;50.992;6.798;2023-06-10T02:15:28;100623.06;;;17.95;82.29
2178;BME280;1095;50.992;6.798;2023-06-10T02:17:55;100623.06;;;17.95;82.42
2178;BME280;1095;50.992;6.798;2023-06-10T02:20:23;100620.41;;;17.88;82.77
2178;BME280;1095;50.992;6.798;2023-06-10T02:22:50;100625.91;;;17.87;82.98
2178;BME280;1095;50.992;6.798;2023-06-10T02:25:17;100623.88;;;17.89;83.00
2178;BME280;1095;50.992;6.798;2023-06-10T02:27:43;100618.56;;;17.89;82.63
2178;BME280;1095;50.992;6.798;2023-06-10T02:30:12;100621.00;;;17.84;82.93
2178;BME280;1095;50.992;6.798;2023-06-10T02:32:39;100628.13;;;17.83;82.87
2178;BME280;1095;50.992;6.798;2023-06-10T02:35:07;100640.13;;;17.73;82.99
2178;BME280;1095;50.992;6.798;2023-06-10T02:37:37;100637.88;;;17.70;83.50
2178;BME280;1095;50.992;6.798;2023-06-10T02:40:06;100644.34;;;17.61;84.04
2178;BME280;1095;50.992;6.798;2023-06-10T02:42:33;100637.84;;;17.56;83.82
2178;BME280;1095;50.992;6.798;2023-06-10T02:44:59;100642.50;;;17.54;83.85
2178;BME280;1095;50.992;6.798;2023-06-10T02:47:28;100643.13;;;17.43;84.53
2178;BME280;1095;50.992;6.798;2023-06-10T02:49:54;100639.25;;;17.39;84.70
2178;BME280;1095;50.992;6.798;2023-06-10T02:52:21;100637.41;;;17.33;85.27
2178;BME280;1095;50.992;6.798;2023-06-10T02:54:48;100627.44;;;17.35;85.06
2178;BME280;1095;50.992;6.798;2023-06-10T02:57:14;100643.94;;;17.37;84.95
2178;BME280;1095;50.992;6.798;2023-06-10T02:59:41;100641.28;;;17.37;84.77
2178;BME280;1095;50.992;6.798;2023-06-10T03:02:07;100638.22;;;17.34;84.88
2178;BME280;1095;50.992;6.798;2023-06-10T03:04:35;100639.66;;;17.36;84.56
2178;BME280;1095;50.992;6.798;2023-06-10T03:07:03;100640.88;;;17.34;84.63
2178;BME280;1095;50.992;6.798;2023-06-10T03:09:32;100644.94;;;17.36;84.59
2178;BME280;1095;50.992;6.798;2023-06-10T03:11:59;100641.69;;;17.34;84.61
2178;BME280;1095;50.992;6.798;2023-06-10T03:14:25;100659.56;;;17.32;84.70
2178;BME280;1095;50.992;6.798;2023-06-10T03:16:52;100651.81;;;17.24;84.92
2178;BME280;1095;50.992;6.798;2023-06-10T03:19:19;100656.47;;;17.22;85.30
2178;BME280;1095;50.992;6.798;2023-06-10T03:21:50;100657.66;;;17.13;85.71
2178;BME280;1095;50.992;6.798;2023-06-10T03:24:21;100667.63;;;17.11;85.82
2178;BME280;1095;50.992;6.798;2023-06-10T03:26:47;100662.56;;;17.16;85.61
2178;BME280;1095;50.992;6.798;2023-06-10T03:29:14;100663.19;;;17.18;85.82
2178;BME280;1095;50.992;6.798;2023-06-10T03:31:41;100659.97;;;17.29;85.96
2178;BME280;1095;50.992;6.798;2023-06-10T03:34:07;100673.16;;;17.22;85.92
2178;BME280;1095;50.992;6.798;2023-06-10T03:36:34;100659.94;;;17.22;86.05
2178;BME280;1095;50.992;6.798;2023-06-10T03:39:04;100654.63;;;17.16;86.30
2178;BME280;1095;50.992;6.798;2023-06-10T03:41:30;100664.38;;;17.15;86.68
2178;BME280;1095;50.992;6.798;2023-06-10T03:43:57;100656.44;;;17.09;86.57
2178;BME280;1095;50.992;6.798;2023-06-10T03:46:23;100657.84;;;17.05;86.61
2178;BME280;1095;50.992;6.798;2023-06-10T03:48:50;100662.31;;;17.04;87.00
2178;BME280;1095;50.992;6.798;2023-06-10T03:51:17;100664.56;;;17.07;86.90
2178;BME280;1095;50.992;6.798;2023-06-10T03:53:43;100668.41;;;17.05;86.88
2178;BME280;1095;50.992;6.798;2023-06-10T03:56:11;100667.63;;;17.11;86.32
2178;BME280;1095;50.992;6.798;2023-06-10T03:58:38;100672.91;;;17.11;86.38
2178;BME280;1095;50.992;6.798;2023-06-10T04:01:05;100675.19;;;17.20;86.40
2178;BME280;1095;50.992;6.798;2023-06-10T04:03:32;100667.34;;;17.53;85.77
2178;BME280;1095;50.992;6.798;2023-06-10T04:05:59;100662.13;;;18.26;84.05
2178;BME280;1095;50.992;6.798;2023-06-10T04:08:25;100659.28;;;19.05;80.79
2178;BME280;1095;50.992;6.798;2023-06-10T04:10:53;100651.94;;;19.83;77.56
2178;BME280;1095;50.992;6.798;2023-06-10T04:13:21;100648.78;;;20.36;75.05
2178;BME280;1095;50.992;6.798;2023-06-10T04:15:47;100655.84;;;20.49;73.87
2178;BME280;1095;50.992;6.798;2023-06-10T04:18:14;100660.50;;;20.72;73.64
2178;BME280;1095;50.992;6.798;2023-06-10T04:20:41;100659.53;;;20.84;73.08
2178;BME280;1095;50.992;6.798;2023-06-10T04:23:09;100667.88;;;21.06;72.52
2178;BME280;1095;50.992;6.798;2023-06-10T04:25:36;100669.38;;;21.32;71.77
2178;BME280;1095;50.992;6.798;2023-06-10T04:28:03;100668.34;;;21.75;70.43
2178;BME280;1095;50.992;6.798;2023-06-10T04:30:31;100672.59;;;21.52;70.36
2178;BME280;1095;50.992;6.798;2023-06-10T04:32:58;100673.25;;;21.00;71.21
2178;BME280;1095;50.992;6.798;2023-06-10T04:35:25;100682.44;;;20.67;72.35
2178;BME280;1095;50.992;6.798;2023-06-10T04:37:52;100681.31;;;20.57;73.41
2178;BME280;1095;50.992;6.798;2023-06-10T04:40:18;100682.38;;;20.31;74.20
2178;BME280;1095;50.992;6.798;2023-06-10T04:42:45;100679.75;;;20.49;74.51
2178;BME280;1095;50.992;6.798;2023-06-10T04:45:11;100678.28;;;21.08;73.02
2178;BME280;1095;50.992;6.798;2023-06-10T04:47:40;100682.75;;;21.74;70.95
2178;BME280;1095;50.992;6.798;2023-06-10T04:50:07;100678.69;;;21.71;71.04
2178;BME280;1095;50.992;6.798;2023-06-10T04:52:34;100676.69;;;21.67;71.02
2178;BME280;1095;50.992;6.798;2023-06-10T04:55:00;100669.16;;;21.64;71.68
2178;BME280;1095;50.992;6.798;2023-06-10T04:57:30;100679.72;;;21.70;71.53
2178;BME280;1095;50.992;6.798;2023-06-10T04:59:57;100680.53;;;21.71;70.89
2178;BME280;1095;50.992;6.798;2023-06-10T05:02:23;100681.91;;;22.15;70.70
2178;BME280;1095;50.992;6.798;2023-06-10T05:04:52;100667.53;;;22.39;69.13
2178;BME280;1095;50.992;6.798;2023-06-10T05:07:18;100668.56;;;22.62;68.53
2178;BME280;1095;50.992;6.798;2023-06-10T05:09:45;100666.81;;;22.56;67.96
2178;BME280;1095;50.992;6.798;2023-06-10T05:12:14;100663.09;;;22.22;67.57
2178;BME280;1095;50.992;6.798;2023-06-10T05:14:43;100679.69;;;22.35;67.77
2178;BME280;1095;50.992;6.798;2023-06-10T05:17:10;100670.19;;;22.51;67.91
2178;BME280;1095;50.992;6.798;2023-06-10T05:19:38;100668.03;;;22.76;67.06
2178;BME280;1095;50.992;6.798;2023-06-10T05:22:08;100681.72;;;23.32;65.68
2178;BME280;1095;50.992;6.798;2023-06-10T05:24:34;100674.13;;;23.69;64.51
2178;BME280;1095;50.992;6.798;2023-06-10T05:27:01;100668.03;;;24.57;62.48
2178;BME280;1095;50.992;6.798;2023-06-10T05:29:28;100667.81;;;25.56;60.12
2178;BME280;1095;50.992;6.798;2023-06-10T05:31:54;100663.13;;;25.41;59.18
2178;BME280;1095;50.992;6.798;2023-06-10T05:34:22;100667.78;;;26.15;58.14
2178;BME280;1095;50.992;6.798;2023-06-10T05:36:49;100658.91;;;26.57;56.89
2178;BME280;1095;50.992;6.798;2023-06-10T05:39:17;100667.25;;;27.28;55.17
2178;BME280;1095;50.992;6.798;2023-06-10T05:41:44;100658.69;;;27.92;53.55
2178;BME280;1095;50.992;6.798;2023-06-10T05:44:10;100661.06;;;27.42;53.72
2178;BME280;1095;50.992;6.798;2023-06-10T05:46:37;100654.81;;;28.59;51.26
2178;BME280;1095;50.992;6.798;2023-06-10T05:49:03;100669.63;;;28.61;51.06
2178;BME280;1095;50.992;6.798;2023-06-10T05:51:30;100666.53;;;28.93;50.00
2178;BME280;1095;50.992;6.798;2023-06-10T05:53:57;100662.41;;;29.11;48.96
2178;BME280;1095;50.992;6.798;2023-06-10T05:56:25;100669.06;;;29.29;49.52
2178;BME280;1095;50.992;6.798;2023-06-10T05:58:51;100669.63;;;29.26;49.37
2178;BME280;1095;50.992;6.798;2023-06-10T06:01:18;100668.03;;;29.64;48.11
2178;BME280;1095;50.992;6.798;2023-06-10T06:03:45;100679.63;;;29.93;48.76
2178;BME280;1095;50.992;6.798;2023-06-10T06:06:11;100652.75;;;29.49;47.64
2178;BME280;1095;50.992;6.798;2023-06-10T06:08:38;100662.22;;;29.47;48.33
2178;BME280;1095;50.992;6.798;2023-06-10T06:11:04;100665.63;;;29.91;47.14
2178;BME280;1095;50.992;6.798;2023-06-10T06:13:32;100651.09;;;29.14;47.79
2178;BME280;1095;50.992;6.798;2023-06-10T06:16:01;100669.66;;;29.94;47.58
2178;BME280;1095;50.992;6.798;2023-06-10T06:18:27;100658.44;;;30.63;44.85
2178;BME280;1095;50.992;6.798;2023-06-10T06:20:54;100655.25;;;30.32;45.89
2178;BME280;1095;50.992;6.798;2023-06-10T06:23:21;100652.94;;;30.92;45.07
2178;BME280;1095;50.992;6.798;2023-06-10T06:25:47;100659.69;;;31.14;44.62
2178;BME280;1095;50.992;6.798;2023-06-10T06:28:14;100654.66;;;30.64;44.55
2178;BME280;1095;50.992;6.798;2023-06-10T06:30:42;100664.78;;;30.73;44.87
2178;BME280;1095;50.992;6.798;2023-06-10T06:33:08;100649.72;;;30.72;43.62
2178;BME280;1095;50.992;6.798;2023-06-10T06:35:35;100646.09;;;29.31;45.85
2178;BME280;1095;50.992;6.798;2023-06-10T06:38:03;100651.88;;;30.46;44.28
2178;BME280;1095;50.992;6.798;2023-06-10T06:40:30;100655.41;;;29.54;45.16
2178;BME280;1095;50.992;6.798;2023-06-10T06:42:56;100657.34;;;29.04;46.93
2178;BME280;1095;50.992;6.798;2023-06-10T06:45:23;100659.31;;;29.33;46.77
2178;BME280;1095;50.992;6.798;2023-06-10T06:47:51;100660.31;;;30.39;45.35
2178;BME280;1095;50.992;6.798;2023-06-10T06:50:18;100657.47;;;30.97;44.20
2178;BME280;1095;50.992;6.798;2023-06-10T06:52:44;100659.72;;;29.55;46.33
2178;BME280;1095;50.992;6.798;2023-06-10T06:55:11;100671.34;;;30.19;46.59
2178;BME280;1095;50.992;6.798;2023-06-10T06:57:37;100673.06;;;30.33;46.09
2178;BME280;1095;50.992;6.798;2023-06-10T07:00:05;100664.88;;;30.67;45.02
2178;BME280;1095;50.992;6.798;2023-06-10T07:02:33;100675.00;;;30.99;45.38
2178;BME280;1095;50.992;6.798;2023-06-10T07:05:09;100657.44;;;31.72;43.37
2178;BME280;1095;50.992;6.798;2023-06-10T07:07:36;100662.66;;;31.12;44.46
2178;BME280;1095;50.992;6.798;2023-06-10T07:10:03;100660.53;;;30.90;43.87
2178;BME280;1095;50.992;6.798;2023-06-10T07:12:30;100657.25;;;31.12;44.41
2178;BME280;1095;50.992;6.798;2023-06-10T07:14:56;100665.63;;;29.91;45.32
2178;BME280;1095;50.992;6.798;2023-06-10T07:17:23;100666.19;;;31.31;43.65
2178;BME280;1095;50.992;6.798;2023-06-10T07:19:53;100659.75;;;30.42;44.19
2178;BME280;1095;50.992;6.798;2023-06-10T07:22:24;100663.19;;;30.48;44.75
2178;BME280;1095;50.992;6.798;2023-06-10T07:24:50;100644.69;;;30.36;43.77
2178;BME280;1095;50.992;6.798;2023-06-10T07:27:20;100660.69;;;29.98;44.83
2178;BME280;1095;50.992;6.798;2023-06-10T07:29:46;100653.66;;;30.55;45.22
2178;BME280;1095;50.992;6.798;2023-06-10T07:32:13;100651.59;;;31.65;42.47
2178;BME280;1095;50.992;6.798;2023-06-10T07:34:39;100666.19;;;30.22;43.58
2178;BME280;1095;50.992;6.798;2023-06-10T07:37:06;100652.47;;;29.85;43.83
2178;BME280;1095;50.992;6.798;2023-06-10T07:39:35;100649.38;;;31.34;42.78
2178;BME280;1095;50.992;6.798;2023-06-10T07:42:01;100645.44;;;31.78;40.95
2178;BME280;1095;50.992;6.798;2023-06-10T07:44:28;100645.59;;;32.14;40.40
2178;BME280;1095;50.992;6.798;2023-06-10T07:46:55;100637.59;;;31.07;41.19
2178;BME280;1095;50.992;6.798;2023-06-10T07:49:23;100637.78;;;30.73;41.86
2178;BME280;1095;50.992;6.798;2023-06-10T07:51:50;100642.94;;;30.93;42.83
2178;BME280;1095;50.992;6.798;2023-06-10T07:54:16;100648.63;;;32.13;40.72
2178;BME280;1095;50.992;6.798;2023-06-10T07:56:44;100652.97;;;32.55;40.50
2178;BME280;1095;50.992;6.798;2023-06-10T07:59:11;100646.00;;;31.43;41.16
2178;BME280;1095;50.992;6.798;2023-06-10T08:01:38;100635.03;;;31.53;40.85
2178;BME280;1095;50.992;6.798;2023-06-10T08:04:05;100649.00;;;32.06;40.17
2178;BME280;1095;50.992;6.798;2023-06-10T08:06:32;100635.06;;;31.99;40.15
2178;BME280;1095;50.992;6.798;2023-06-10T08:08:58;100657.69;;;31.57;40.54
2178;BME280;1095;50.992;6.798;2023-06-10T08:11:25;100658.81;;;30.52;41.84
2178;BME280;1095;50.992;6.798;2023-06-10T08:13:55;100648.47;;;30.83;42.08
2178;BME280;1095;50.992;6.798;2023-06-10T08:16:21;100654.22;;;30.52;42.65
2178;BME280;1095;50.992;6.798;2023-06-10T08:18:48;100660.00;;;30.69;43.41
2178;BME280;1095;50.992;6.798;2023-06-10T08:21:15;100656.31;;;31.41;42.09
2178;BME280;1095;50.992;6.798;2023-06-10T08:23:42;100660.38;;;30.34;43.13
2178;BME280;1095;50.992;6.798;2023-06-10T08:26:09;100637.91;;;31.24;41.54
2178;BME280;1095;50.992;6.798;2023-06-10T08:28:36;100659.06;;;30.55;42.49
2178;BME280;1095;50.992;6.798;2023-06-10T08:31:04;100662.72;;;31.96;42.13
2178;BME280;1095;50.992;6.798;2023-06-10T08:33:30;100660.94;;;33.01;41.67
2178;BME280;1095;50.992;6.798;2023-06-10T08:35:57;100643.03;;;32.23;39.89
2178;BME280;1095;50.992;6.798;2023-06-10T08:38:23;100658.13;;;31.96;40.39
2178;BME280;1095;50.992;6.798;2023-06-10T08:40:53;100654.88;;;32.27;40.91
2178;BME280;1095;50.992;6.798;2023-06-10T08:43:22;100656.38;;;31.87;41.64
2178;BME280;1095;50.992;6.798;2023-06-10T08:45:52;100642.00;;;32.19;40.62
2178;BME280;1095;50.992;6.798;2023-06-10T08:48:23;100645.19;;;32.21;40.55
2178;BME280;1095;50.992;6.798;2023-06-10T08:50:51;100631.06;;;32.65;40.11
2178;BME280;1095;50.992;6.798;2023-06-10T08:53:19;100649.84;;;31.74;40.27
2178;BME280;1095;50.992;6.798;2023-06-10T08:55:50;100651.88;;;31.82;40.44
2178;BME280;1095;50.992;6.798;2023-06-10T08:58:17;100650.53;;;31.28;41.48
2178;BME280;1095;50.992;6.798;2023-06-10T09:00:45;100650.25;;;31.81;41.16
2178;BME280;1095;50.992;6.798;2023-06-10T09:03:12;100637.53;;;31.82;40.41
2178;BME280;1095;50.992;6.798;2023-06-10T09:05:40;100654.84;;;30.44;42.70
2178;BME280;1095;50.992;6.798;2023-06-10T09:08:08;100641.69;;;31.04;42.00
2178;BME280;1095;50.992;6.798;2023-06-10T09:10:35;100643.56;;;30.66;42.49
2178;BME280;1095;50.992;6.798;2023-06-10T09:13:05;100652.41;;;29.90;43.36
2178;BME280;1095;50.992;6.798;2023-06-10T09:15:32;100654.25;;;29.94;43.21
2178;BME280;1095;50.992;6.798;2023-06-10T09:17:59;100648.94;;;30.42;43.13
2178;BME280;1095;50.992;6.798;2023-06-10T09:20:26;100635.38;;;31.14;41.87
2178;BME280;1095;50.992;6.798;2023-06-10T09:22:54;100646.19;;;30.47;42.43
2178;BME280;1095;50.992;6.798;2023-06-10T09:25:34;100633.53;;;31.28;41.75
2178;BME280;1095;50.992;6.798;2023-06-10T09:28:02;100640.50;;;31.15;41.68
2178;BME280;1095;50.992;6.798;2023-06-10T09:30:30;100633.78;;;31.45;41.19
2178;BME280;1095;50.992;6.798;2023-06-10T09:32:59;100632.09;;;31.17;42.24
2178;BME280;1095;50.992;6.798;2023-06-10T09:35:27;100645.41;;;31.64;42.07
2178;BME280;1095;50.992;6.798;2023-06-10T09:37:56;100640.69;;;31.70;41.56
2178;BME280;1095;50.992;6.798;2023-06-10T09:40:24;100633.41;;;30.77;42.59
2178;BME280;1095;50.992;6.798;2023-06-10T09:42:53;100633.50;;;31.47;43.30
2178;BME280;1095;50.992;6.798;2023-06-10T09:45:21;100636.06;;;30.34;43.24
2178;BME280;1095;50.992;6.798;2023-06-10T09:47:51;100641.00;;;30.51;43.94
2178;BME280;1095;50.992;6.798;2023-06-10T09:50:19;100614.00;;;30.93;42.89
2178;BME280;1095;50.992;6.798;2023-06-10T09:52:46;100622.97;;;31.45;42.16
2178;BME280;1095;50.992;6.798;2023-06-10T09:55:15;100641.38;;;31.62;42.42
2178;BME280;1095;50.992;6.798;2023-06-10T09:57:43;100608.25;;;31.70;42.68
2178;BME280;1095;50.992;6.798;2023-06-10T10:00:14;100635.41;;;32.25;41.85
2178;BME280;1095;50.992;6.798;2023-06-10T10:02:46;100628.38;;;32.10;42.28
2178;BME280;1095;50.992;6.798;2023-06-10T10:05:14;100638.19;;;32.20;42.79
2178;BME280;1095;50.992;6.798;2023-06-10T10:07:41;100626.34;;;30.99;42.88
2178;BME280;1095;50.992;6.798;2023-06-10T10:10:08;100632.25;;;30.83;43.91
2178;BME280;1095;50.992;6.798;2023-06-10T10:12:37;100632.16;;;31.63;43.51
2178;BME280;1095;50.992;6.798;2023-06-10T10:15:06;100633.63;;;31.55;43.90
2178;BME280;1095;50.992;6.798;2023-06-10T10:17:34;100631.16;;;31.91;42.80
2178;BME280;1095;50.992;6.798;2023-06-10T10:20:04;100631.91;;;31.78;44.21
2178;BME280;1095;50.992;6.798;2023-06-10T10:22:35;100615.94;;;32.23;42.58
2178;BME280;1095;50.992;6.798;2023-06-10T10:25:07;100622.88;;;32.29;42.57
2178;BME280;1095;50.992;6.798;2023-06-10T10:27:43;100627.38;;;32.47;42.63
2178;BME280;1095;50.992;6.798;2023-06-10T10:30:11;100617.91;;;32.72;42.05
2178;BME280;1095;50.992;6.798;2023-06-10T10:32:51;100612.72;;;32.62;41.26
2178;BME280;1095;50.992;6.798;2023-06-10T10:35:21;100617.16;;;32.44;42.44
2178;BME280;1095;50.992;6.798;2023-06-10T10:37:49;100604.22;;;32.41;42.19
2178;BME280;1095;50.992;6.798;2023-06-10T10:40:18;100590.69;;;32.41;40.95
2178;BME280;1095;50.992;6.798;2023-06-10T10:42:47;100597.25;;;32.62;41.55
2178;BME280;1095;50.992;6.798;2023-06-10T10:45:15;100597.13;;;33.17;41.89
2178;BME280;1095;50.992;6.798;2023-06-10T10:47:44;100593.22;;;33.10;40.26
2178;BME280;1095;50.992;6.798;2023-06-10T10:50:15;100577.31;;;32.58;39.46
2178;BME280;1095;50.992;6.798;2023-06-10T10:52:54;100583.38;;;32.28;40.82
2178;BME280;1095;50.992;6.798;2023-06-10T10:55:21;100599.69;;;31.95;41.96
2178;BME280;1095;50.992;6.798;2023-06-10T10:57:56;100586.53;;;32.16;41.29
2178;BME280;1095;50.992;6.798;2023-06-10T11:00:28;100581.25;;;32.39;40.97
2178;BME280;1095;50.992;6.798;2023-06-10T11:02:58;100583.84;;;31.05;42.20
2178;BME280;1095;50.992;6.798;2023-06-10T11:05:35;100580.75;;;30.55;43.36
2178;BME280;1095;50.992;6.798;2023-06-10T11:08:03;100587.69;;;30.19;44.25
2178;BME280;1095;50.992;6.798;2023-06-10T11:10:30;100576.50;;;30.49;43.96
2178;BME280;1095;50.992;6.798;2023-06-10T11:12:59;100590.75;;;30.31;44.58
2178;BME280;1095;50.992;6.798;2023-06-10T11:15:26;100589.16;;;30.06;44.52
2178;BME280;1095;50.992;6.798;2023-06-10T11:18:13;100596.66;;;29.80;45.45
2178;BME280;1095;50.992;6.798;2023-06-10T11:20:59;100588.53;;;29.85;46.00
2178;BME280;1095;50.992;6.798;2023-06-10T11:23:41;100573.91;;;29.91;45.07
2178;BME280;1095;50.992;6.798;2023-06-10T11:26:29;100582.94;;;30.29;45.24
2178;BME280;1095;50.992;6.798;2023-06-10T11:29:03;100571.84;;;30.31;45.39
2178;BME280;1095;50.992;6.798;2023-06-10T11:31:31;100568.22;;;30.22;45.15
2178;BME280;1095;50.992;6.798;2023-06-10T11:33:59;100577.16;;;30.17;45.13
2178;BME280;1095;50.992;6.798;2023-06-10T11:36:27;100567.81;;;29.52;45.93
2178;BME280;1095;50.992;6.798;2023-06-10T11:38:57;100569.78;;;29.75;46.28
2178;BME280;1095;50.992;6.798;2023-06-10T11:41:26;100571.38;;;29.76;45.74
2178;BME280;1095;50.992;6.798;2023-06-10T11:44:07;100569.66;;;29.22;46.17
2178;BME280;1095;50.992;6.798;2023-06-10T11:46:35;100573.44;;;29.55;46.63
2178;BME280;1095;50.992;6.798;2023-06-10T11:49:02;100566.50;;;29.49;45.75
2178;BME280;1095;50.992;6.798;2023-06-10T11:51:33;100554.03;;;29.82;45.36
2178;BME280;1095;50.992;6.798;2023-06-10T11:54:01;100552.88;;;29.64;44.63
2178;BME280;1095;50.992;6.798;2023-06-10T11:56:29;100551.59;;;29.57;44.36
2178;BME280;1095;50.992;6.798;2023-06-10T11:58:57;100560.56;;;29.47;45.00
2178;BME280;1095;50.992;6.798;2023-06-10T12:01:34;100558.75;;;29.95;45.32
2178;BME280;1095;50.992;6.798;2023-06-10T12:04:08;100549.03;;;29.99;44.21
2178;BME280;1095;50.992;6.798;2023-06-10T12:07:11;100551.41;;;30.25;44.11
2178;BME280;1095;50.992;6.798;2023-06-10T12:10:06;100539.91;;;29.66;44.96
2178;BME280;1095;50.992;6.798;2023-06-10T12:13:10;100534.53;;;29.66;44.53
2178;BME280;1095;50.992;6.798;2023-06-10T12:16:05;100537.56;;;29.60;44.85
2178;BME280;1095;50.992;6.798;2023-06-10T12:19:03;100525.16;;;29.59;43.41
2178;BME280;1095;50.992;6.798;2023-06-10T12:21:32;100532.50;;;30.06;42.56
2178;BME280;1095;50.992;6.798;2023-06-10T12:24:03;100522.47;;;30.30;40.68
2178;BME280;1095;50.992;6.798;2023-06-10T12:26:38;100518.25;;;30.43;39.94
2178;BME280;1095;50.992;6.798;2023-06-10T12:29:19;100527.50;;;30.61;40.54
2178;BME280;1095;50.992;6.798;2023-06-10T12:31:57;100514.06;;;30.32;40.25
2178;BME280;1095;50.992;6.798;2023-06-10T12:34:33;100516.03;;;30.26;40.56
2178;BME280;1095;50.992;6.798;2023-06-10T12:37:01;100518.38;;;30.33;39.87
2178;BME280;1095;50.992;6.798;2023-06-10T12:39:29;100522.69;;;30.34;40.35
2178;BME280;1095;50.992;6.798;2023-06-10T12:41:56;100519.41;;;30.37;40.04
2178;BME280;1095;50.992;6.798;2023-06-10T12:44:33;100515.16;;;30.31;39.57
2178;BME280;1095;50.992;6.798;2023-06-10T12:47:01;100512.13;;;30.37;39.14
2178;BME280;1095;50.992;6.798;2023-06-10T12:49:37;100514.41;;;30.49;39.52
2178;BME280;1095;50.992;6.798;2023-06-10T12:52:05;100514.47;;;30.44;39.72
2178;BME280;1095;50.992;6.798;2023-06-10T12:54:34;100515.44;;;30.91;39.84
2178;BME280;1095;50.992;6.798;2023-06-10T12:57:01;100511.56;;;30.97;39.08
2178;BME280;1095;50.992;6.798;2023-06-10T12:59:28;100510.03;;;30.91;38.48
2178;BME280;1095;50.992;6.798;2023-06-10T13:01:58;100507.31;;;30.72;38.70
2178;BME280;1095;50.992;6.798;2023-06-10T13:04:25;100498.13;;;31.24;38.23
2178;BME280;1095;50.992;6.798;2023-06-10T13:06:53;100496.59;;;31.51;37.87
2178;BME280;1095;50.992;6.798;2023-06-10T13:09:20;100486.22;;;31.25;37.38
2178;BME280;1095;50.992;6.798;2023-06-10T13:11:46;100494.34;;;31.25;36.76
2178;BME280;1095;50.992;6.798;2023-06-10T13:14:13;100474.78;;;31.61;36.26
2178;BME280;1095;50.992;6.798;2023-06-10T13:16:39;100484.25;;;31.31;36.82
2178;BME280;1095;50.992;6.798;2023-06-10T13:19:06;100478.50;;;32.06;35.67